sensor_id;sensor_type;location;lat;lon;timestamp;P1;durP1;ratioP1;P2;durP2;ratioP2
75990;SDS011;64673;52.276;10.560;2023-03-31T00:01:06;6.25;;;1.27;;
75990;SDS011;64673;52.276;10.560;2023-03-31T00:03:32;5.85;;;1.83;;
75990;SDS011;64673;52.276;10.560;2023-03-31T00:05:58;5.13;;;1.55;;
75990;SDS011;64673;52.276;10.560;2023-03-31T00:08:25;5.45;;;1.95;;
75990;SDS011;64673;52.276;10.560;2023-03-31T00:10:57;4.78;;;1.45;;
75990;SDS011;64673;52.276;10.560;2023-03-31T00:13:24;3.25;;;1.60;;
75990;SDS011;64673;52.276;10.560;2023-03-31T00:15:54;5.10;;;1.45;;
75990;SDS011;64673;52.276;10.560;2023-03-31T00:18:27;7.70;;;1.63;;
75990;SDS011;64673;52.276;10.560;2023-03-31T00:20:53;5.72;;;1.52;;
75990;SDS011;64673;52.276;10.560;2023-03-31T00:23:21;2.63;;;1.70;;
75990;SDS011;64673;52.276;10.560;2023-03-31T00:25:51;4.72;;;1.20;;
75990;SDS011;64673;52.276;10.560;2023-03-31T00:28:17;3.20;;;1.15;;
75990;SDS011;64673;52.276;10.560;2023-03-31T00:30:42;4.72;;;1.00;;
75990;SDS011;64673;52.276;10.560;2023-03-31T00:33:08;4.05;;;0.98;;
75990;SDS011;64673;52.276;10.560;2023-03-31T00:35:34;1.83;;;0.95;;
75990;SDS011;64673;52.276;10.560;2023-03-31T00:37:59;2.22;;;1.05;;
75990;SDS011;64673;52.276;10.560;2023-03-31T00:40:25;5.07;;;0.90;;
75990;SDS011;64673;52.276;10.560;2023-03-31T00:42:50;3.67;;;1.02;;
75990;SDS011;64673;52.276;10.560;2023-03-31T00:47:41;4.05;;;1.25;;
75990;SDS011;64673;52.276;10.560;2023-03-31T00:50:17;3.20;;;0.90;;
75990;SDS011;64673;52.276;10.560;2023-03-31T00:52:46;2.15;;;0.77;;
75990;SDS011;64673;52.276;10.560;2023-03-31T00:55:16;5.03;;;1.23;;
75990;SDS011;64673;52.276;10.560;2023-03-31T00:57:48;3.55;;;1.17;;
75990;SDS011;64673;52.276;10.560;2023-03-31T01:00:17;2.53;;;0.98;;
75990;SDS011;64673;52.276;10.560;2023-03-31T01:02:47;4.47;;;1.00;;
75990;SDS011;64673;52.276;10.560;2023-03-31T01:05:23;2.92;;;0.82;;
75990;SDS011;64673;52.276;10.560;2023-03-31T01:07:52;4.72;;;1.27;;
75990;SDS011;64673;52.276;10.560;2023-03-31T01:10:18;4.38;;;0.88;;
75990;SDS011;64673;52.276;10.560;2023-03-31T01:12:46;3.00;;;0.75;;
75990;SDS011;64673;52.276;10.560;2023-03-31T01:15:16;3.25;;;0.80;;
75990;SDS011;64673;52.276;10.560;2023-03-31T01:17:42;2.97;;;1.00;;
75990;SDS011;64673;52.276;10.560;2023-03-31T01:20:31;4.47;;;0.95;;
75990;SDS011;64673;52.276;10.560;2023-03-31T01:29:00;6.93;;;0.88;;
75990;SDS011;64673;52.276;10.560;2023-03-31T01:31:44;6.13;;;0.77;;
75990;SDS011;64673;52.276;10.560;2023-03-31T01:34:32;5.18;;;1.30;;
75990;SDS011;64673;52.276;10.560;2023-03-31T01:42:31;3.15;;;0.70;;
75990;SDS011;64673;52.276;10.560;2023-03-31T01:45:05;4.90;;;1.10;;
75990;SDS011;64673;52.276;10.560;2023-03-31T01:47:37;2.47;;;0.73;;
75990;SDS011;64673;52.276;10.560;2023-03-31T01:55:23;4.35;;;1.02;;
75990;SDS011;64673;52.276;10.560;2023-03-31T02:00:30;4.95;;;0.70;;
75990;SDS011;64673;52.276;10.560;2023-03-31T02:05:29;3.20;;;1.47;;
75990;SDS011;64673;52.276;10.560;2023-03-31T02:10:37;1.90;;;0.60;;
75990;SDS011;64673;52.276;10.560;2023-03-31T02:13:05;3.10;;;0.60;;
75990;SDS011;64673;52.276;10.560;2023-03-31T02:15:33;3.15;;;0.70;;
75990;SDS011;64673;52.276;10.560;2023-03-31T02:18:03;4.60;;;0.95;;
75990;SDS011;64673;52.276;10.560;2023-03-31T02:20:35;3.17;;;0.52;;
75990;SDS011;64673;52.276;10.560;2023-03-31T02:23:10;2.78;;;0.73;;
75990;SDS011;64673;52.276;10.560;2023-03-31T02:25:41;3.38;;;0.75;;
75990;SDS011;64673;52.276;10.560;2023-03-31T02:28:17;4.00;;;1.00;;
75990;SDS011;64673;52.276;10.560;2023-03-31T02:33:41;1.58;;;0.47;;
75990;SDS011;64673;52.276;10.560;2023-03-31T02:36:07;3.10;;;0.60;;
75990;SDS011;64673;52.276;10.560;2023-03-31T02:38:34;3.38;;;0.50;;
75990;SDS011;64673;52.276;10.560;2023-03-31T02:41:10;3.03;;;0.65;;
75990;SDS011;64673;52.276;10.560;2023-03-31T02:43:35;3.47;;;1.05;;
75990;SDS011;64673;52.276;10.560;2023-03-31T02:46:01;2.97;;;1.08;;
75990;SDS011;64673;52.276;10.560;2023-03-31T02:48:27;2.95;;;0.50;;
75990;SDS011;64673;52.276;10.560;2023-03-31T03:02:42;6.80;;;1.05;;
75990;SDS011;64673;52.276;10.560;2023-03-31T03:06:00;4.15;;;1.10;;
75990;SDS011;64673;52.276;10.560;2023-03-31T03:13:48;2.90;;;0.90;;
75990;SDS011;64673;52.276;10.560;2023-03-31T03:16:22;3.50;;;0.70;;
75990;SDS011;64673;52.276;10.560;2023-03-31T03:19:01;7.03;;;1.02;;
75990;SDS011;64673;52.276;10.560;2023-03-31T03:21:29;4.40;;;1.38;;
75990;SDS011;64673;52.276;10.560;2023-03-31T03:23:56;4.47;;;1.42;;
75990;SDS011;64673;52.276;10.560;2023-03-31T03:26:22;8.27;;;1.80;;
75990;SDS011;64673;52.276;10.560;2023-03-31T03:28:48;3.97;;;1.17;;
75990;SDS011;64673;52.276;10.560;2023-03-31T03:31:14;5.63;;;1.75;;
75990;SDS011;64673;52.276;10.560;2023-03-31T03:33:41;5.70;;;1.30;;
75990;SDS011;64673;52.276;10.560;2023-03-31T03:36:06;4.80;;;1.38;;
75990;SDS011;64673;52.276;10.560;2023-03-31T03:38:32;3.83;;;0.93;;
75990;SDS011;64673;52.276;10.560;2023-03-31T03:40:58;2.25;;;0.80;;
75990;SDS011;64673;52.276;10.560;2023-03-31T03:43:24;1.35;;;0.70;;
75990;SDS011;64673;52.276;10.560;2023-03-31T03:45:50;3.30;;;1.25;;
75990;SDS011;64673;52.276;10.560;2023-03-31T03:48:16;3.63;;;1.00;;
75990;SDS011;64673;52.276;10.560;2023-03-31T03:50:41;2.25;;;0.73;;
75990;SDS011;64673;52.276;10.560;2023-03-31T03:53:08;3.72;;;1.02;;
75990;SDS011;64673;52.276;10.560;2023-03-31T03:55:34;2.67;;;0.80;;
75990;SDS011;64673;52.276;10.560;2023-03-31T03:57:59;6.15;;;1.17;;
75990;SDS011;64673;52.276;10.560;2023-03-31T04:00:24;3.70;;;1.30;;
75990;SDS011;64673;52.276;10.560;2023-03-31T04:02:50;1.95;;;1.00;;
75990;SDS011;64673;52.276;10.560;2023-03-31T04:05:15;3.03;;;0.90;;
75990;SDS011;64673;52.276;10.560;2023-03-31T04:07:41;4.38;;;0.77;;
75990;SDS011;64673;52.276;10.560;2023-03-31T04:10:06;3.28;;;0.60;;
75990;SDS011;64673;52.276;10.560;2023-03-31T04:12:33;3.67;;;0.80;;
75990;SDS011;64673;52.276;10.560;2023-03-31T04:14:59;2.50;;;0.70;;
75990;SDS011;64673;52.276;10.560;2023-03-31T04:17:24;2.55;;;0.60;;
75990;SDS011;64673;52.276;10.560;2023-03-31T04:19:56;2.95;;;0.50;;
75990;SDS011;64673;52.276;10.560;2023-03-31T04:22:27;3.60;;;0.70;;
75990;SDS011;64673;52.276;10.560;2023-03-31T04:24:59;2.78;;;0.88;;
75990;SDS011;64673;52.276;10.560;2023-03-31T04:27:25;2.45;;;0.70;;
75990;SDS011;64673;52.276;10.560;2023-03-31T04:29:53;2.05;;;0.80;;
75990;SDS011;64673;52.276;10.560;2023-03-31T04:32:19;3.90;;;0.75;;
75990;SDS011;64673;52.276;10.560;2023-03-31T04:34:45;3.85;;;0.80;;
75990;SDS011;64673;52.276;10.560;2023-03-31T04:37:11;1.55;;;0.70;;
75990;SDS011;64673;52.276;10.560;2023-03-31T04:39:37;2.45;;;0.80;;
75990;SDS011;64673;52.276;10.560;2023-03-31T04:42:02;4.07;;;0.95;;
75990;SDS011;64673;52.276;10.560;2023-03-31T04:44:28;3.67;;;0.80;;
75990;SDS011;64673;52.276;10.560;2023-03-31T04:46:53;3.80;;;0.65;;
75990;SDS011;64673;52.276;10.560;2023-03-31T04:49:19;3.05;;;0.60;;
75990;SDS011;64673;52.276;10.560;2023-03-31T04:51:45;1.38;;;0.57;;
75990;SDS011;64673;52.276;10.560;2023-03-31T04:54:10;3.70;;;0.57;;
75990;SDS011;64673;52.276;10.560;2023-03-31T04:56:36;3.83;;;0.70;;
75990;SDS011;64673;52.276;10.560;2023-03-31T04:59:01;3.03;;;0.88;;
75990;SDS011;64673;52.276;10.560;2023-03-31T05:01:28;4.88;;;0.77;;
75990;SDS011;64673;52.276;10.560;2023-03-31T05:03:57;3.25;;;0.88;;
75990;SDS011;64673;52.276;10.560;2023-03-31T05:06:22;2.55;;;0.52;;
75990;SDS011;64673;52.276;10.560;2023-03-31T05:08:48;3.92;;;0.60;;
75990;SDS011;64673;52.276;10.560;2023-03-31T05:11:13;4.93;;;0.85;;
75990;SDS011;64673;52.276;10.560;2023-03-31T05:13:38;3.80;;;0.60;;
75990;SDS011;64673;52.276;10.560;2023-03-31T05:16:07;1.88;;;0.82;;
75990;SDS011;64673;52.276;10.560;2023-03-31T05:18:33;3.40;;;0.88;;
75990;SDS011;64673;52.276;10.560;2023-03-31T05:21:07;5.22;;;1.00;;
75990;SDS011;64673;52.276;10.560;2023-03-31T05:23:36;3.35;;;0.90;;
75990;SDS011;64673;52.276;10.560;2023-03-31T05:26:02;4.18;;;0.93;;
75990;SDS011;64673;52.276;10.560;2023-03-31T05:28:27;4.18;;;0.82;;
75990;SDS011;64673;52.276;10.560;2023-03-31T05:30:52;3.97;;;0.80;;
75990;SDS011;64673;52.276;10.560;2023-03-31T05:33:18;2.03;;;0.57;;
75990;SDS011;64673;52.276;10.560;2023-03-31T05:35:43;4.95;;;0.77;;
75990;SDS011;64673;52.276;10.560;2023-03-31T05:38:08;2.28;;;0.50;;
75990;SDS011;64673;52.276;10.560;2023-03-31T05:40:34;2.15;;;0.88;;
75990;SDS011;64673;52.276;10.560;2023-03-31T05:42:59;2.83;;;0.63;;
75990;SDS011;64673;52.276;10.560;2023-03-31T05:45:27;2.10;;;0.80;;
75990;SDS011;64673;52.276;10.560;2023-03-31T05:47:53;4.78;;;1.00;;
75990;SDS011;64673;52.276;10.560;2023-03-31T05:50:18;1.30;;;0.50;;
75990;SDS011;64673;52.276;10.560;2023-03-31T05:52:43;3.17;;;0.55;;
75990;SDS011;64673;52.276;10.560;2023-03-31T05:55:09;1.73;;;0.65;;
75990;SDS011;64673;52.276;10.560;2023-03-31T05:57:34;6.18;;;0.77;;
75990;SDS011;64673;52.276;10.560;2023-03-31T05:59:59;2.92;;;0.90;;
75990;SDS011;64673;52.276;10.560;2023-03-31T06:02:25;2.25;;;0.80;;
75990;SDS011;64673;52.276;10.560;2023-03-31T06:04:50;2.47;;;0.60;;
75990;SDS011;64673;52.276;10.560;2023-03-31T06:07:16;3.72;;;0.50;;
75990;SDS011;64673;52.276;10.560;2023-03-31T06:09:41;2.08;;;0.50;;
75990;SDS011;64673;52.276;10.560;2023-03-31T06:12:07;4.28;;;0.90;;
75990;SDS011;64673;52.276;10.560;2023-03-31T06:14:32;1.40;;;0.52;;
75990;SDS011;64673;52.276;10.560;2023-03-31T06:16:57;3.70;;;0.90;;
75990;SDS011;64673;52.276;10.560;2023-03-31T06:19:23;3.47;;;0.85;;
75990;SDS011;64673;52.276;10.560;2023-03-31T06:21:48;5.82;;;1.00;;
75990;SDS011;64673;52.276;10.560;2023-03-31T06:24:14;2.53;;;0.52;;
75990;SDS011;64673;52.276;10.560;2023-03-31T06:26:39;4.07;;;0.60;;
75990;SDS011;64673;52.276;10.560;2023-03-31T06:29:05;1.98;;;0.50;;
75990;SDS011;64673;52.276;10.560;2023-03-31T06:31:30;1.13;;;0.47;;
75990;SDS011;64673;52.276;10.560;2023-03-31T06:33:56;2.55;;;0.60;;
75990;SDS011;64673;52.276;10.560;2023-03-31T06:36:21;2.25;;;0.63;;
75990;SDS011;64673;52.276;10.560;2023-03-31T06:38:47;1.40;;;0.32;;
75990;SDS011;64673;52.276;10.560;2023-03-31T06:41:14;3.08;;;0.60;;
75990;SDS011;64673;52.276;10.560;2023-03-31T06:43:40;4.38;;;0.77;;
75990;SDS011;64673;52.276;10.560;2023-03-31T06:46:05;3.67;;;0.82;;
75990;SDS011;64673;52.276;10.560;2023-03-31T06:48:31;1.98;;;0.50;;
75990;SDS011;64673;52.276;10.560;2023-03-31T06:51:01;2.40;;;0.60;;
75990;SDS011;64673;52.276;10.560;2023-03-31T06:53:28;2.10;;;0.38;;
75990;SDS011;64673;52.276;10.560;2023-03-31T06:55:54;3.83;;;0.82;;
75990;SDS011;64673;52.276;10.560;2023-03-31T06:58:19;2.08;;;0.60;;
75990;SDS011;64673;52.276;10.560;2023-03-31T07:00:44;4.15;;;1.08;;
75990;SDS011;64673;52.276;10.560;2023-03-31T07:03:10;1.42;;;0.75;;
75990;SDS011;64673;52.276;10.560;2023-03-31T07:05:36;3.10;;;0.40;;
75990;SDS011;64673;52.276;10.560;2023-03-31T07:08:01;3.25;;;0.38;;
75990;SDS011;64673;52.276;10.560;2023-03-31T07:10:28;2.75;;;0.60;;
75990;SDS011;64673;52.276;10.560;2023-03-31T07:12:55;3.30;;;0.77;;
75990;SDS011;64673;52.276;10.560;2023-03-31T07:15:21;4.13;;;0.70;;
75990;SDS011;64673;52.276;10.560;2023-03-31T07:17:47;2.42;;;0.45;;
75990;SDS011;64673;52.276;10.560;2023-03-31T07:20:15;2.88;;;0.55;;
75990;SDS011;64673;52.276;10.560;2023-03-31T07:22:42;2.40;;;0.38;;
75990;SDS011;64673;52.276;10.560;2023-03-31T07:25:09;1.95;;;0.50;;
75990;SDS011;64673;52.276;10.560;2023-03-31T07:27:36;2.30;;;0.60;;
75990;SDS011;64673;52.276;10.560;2023-03-31T07:30:03;4.10;;;0.52;;
75990;SDS011;64673;52.276;10.560;2023-03-31T07:32:29;4.03;;;0.60;;
75990;SDS011;64673;52.276;10.560;2023-03-31T07:34:55;2.65;;;0.70;;
75990;SDS011;64673;52.276;10.560;2023-03-31T07:37:20;2.33;;;0.57;;
75990;SDS011;64673;52.276;10.560;2023-03-31T07:39:45;5.53;;;1.02;;
75990;SDS011;64673;52.276;10.560;2023-03-31T07:42:11;3.03;;;0.95;;
75990;SDS011;64673;52.276;10.560;2023-03-31T07:44:36;3.15;;;0.68;;
75990;SDS011;64673;52.276;10.560;2023-03-31T07:47:02;2.30;;;0.80;;
75990;SDS011;64673;52.276;10.560;2023-03-31T07:49:28;7.57;;;0.80;;
75990;SDS011;64673;52.276;10.560;2023-03-31T07:51:55;2.25;;;0.60;;
75990;SDS011;64673;52.276;10.560;2023-03-31T07:54:20;2.55;;;0.55;;
75990;SDS011;64673;52.276;10.560;2023-03-31T07:56:46;1.88;;;0.70;;
75990;SDS011;64673;52.276;10.560;2023-03-31T07:59:11;2.33;;;0.55;;
75990;SDS011;64673;52.276;10.560;2023-03-31T08:01:36;3.55;;;0.80;;
75990;SDS011;64673;52.276;10.560;2023-03-31T08:04:02;3.40;;;0.52;;
75990;SDS011;64673;52.276;10.560;2023-03-31T08:06:27;4.32;;;0.65;;
75990;SDS011;64673;52.276;10.560;2023-03-31T08:08:54;3.92;;;0.50;;
75990;SDS011;64673;52.276;10.560;2023-03-31T08:11:19;2.55;;;1.20;;
75990;SDS011;64673;52.276;10.560;2023-03-31T08:13:45;3.00;;;0.68;;
75990;SDS011;64673;52.276;10.560;2023-03-31T08:16:11;2.58;;;0.60;;
75990;SDS011;64673;52.276;10.560;2023-03-31T08:18:37;4.60;;;0.65;;
75990;SDS011;64673;52.276;10.560;2023-03-31T08:21:02;1.88;;;0.60;;
75990;SDS011;64673;52.276;10.560;2023-03-31T08:23:28;3.88;;;0.47;;
75990;SDS011;64673;52.276;10.560;2023-03-31T08:25:53;3.28;;;0.70;;
75990;SDS011;64673;52.276;10.560;2023-03-31T08:28:19;2.53;;;0.77;;
75990;SDS011;64673;52.276;10.560;2023-03-31T08:30:44;2.42;;;0.88;;
75990;SDS011;64673;52.276;10.560;2023-03-31T08:33:10;2.35;;;0.50;;
75990;SDS011;64673;52.276;10.560;2023-03-31T08:35:38;3.05;;;1.02;;
75990;SDS011;64673;52.276;10.560;2023-03-31T08:38:03;2.10;;;0.77;;
75990;SDS011;64673;52.276;10.560;2023-03-31T08:40:29;3.80;;;1.30;;
75990;SDS011;64673;52.276;10.560;2023-03-31T08:43:16;3.40;;;0.82;;
75990;SDS011;64673;52.276;10.560;2023-03-31T08:45:49;5.65;;;0.60;;
75990;SDS011;64673;52.276;10.560;2023-03-31T08:48:26;2.40;;;0.85;;
75990;SDS011;64673;52.276;10.560;2023-03-31T08:51:08;1.95;;;0.65;;
75990;SDS011;64673;52.276;10.560;2023-03-31T08:53:39;2.75;;;0.60;;
75990;SDS011;64673;52.276;10.560;2023-03-31T08:56:14;3.85;;;0.90;;
75990;SDS011;64673;52.276;10.560;2023-03-31T09:01:21;4.70;;;0.80;;
75990;SDS011;64673;52.276;10.560;2023-03-31T09:06:40;4.55;;;0.98;;
75990;SDS011;64673;52.276;10.560;2023-03-31T09:09:10;2.03;;;0.60;;
75990;SDS011;64673;52.276;10.560;2023-03-31T09:16:58;3.45;;;0.60;;
75990;SDS011;64673;52.276;10.560;2023-03-31T09:20:04;1.90;;;0.57;;
75990;SDS011;64673;52.276;10.560;2023-03-31T09:22:34;1.25;;;0.45;;
75990;SDS011;64673;52.276;10.560;2023-03-31T09:27:55;2.20;;;0.60;;
75990;SDS011;64673;52.276;10.560;2023-03-31T09:30:28;2.47;;;0.70;;
75990;SDS011;64673;52.276;10.560;2023-03-31T09:35:37;2.30;;;0.50;;
75990;SDS011;64673;52.276;10.560;2023-03-31T09:38:03;1.90;;;0.25;;
75990;SDS011;64673;52.276;10.560;2023-03-31T09:40:28;2.92;;;0.50;;
75990;SDS011;64673;52.276;10.560;2023-03-31T09:42:58;1.33;;;0.32;;
75990;SDS011;64673;52.276;10.560;2023-03-31T09:45:31;2.67;;;0.52;;
75990;SDS011;64673;52.276;10.560;2023-03-31T09:47:59;1.33;;;0.40;;
75990;SDS011;64673;52.276;10.560;2023-03-31T09:50:26;0.98;;;0.40;;
75990;SDS011;64673;52.276;10.560;2023-03-31T09:52:55;2.10;;;0.60;;
75990;SDS011;64673;52.276;10.560;2023-03-31T09:55:26;1.40;;;0.50;;
75990;SDS011;64673;52.276;10.560;2023-03-31T09:58:01;2.30;;;0.82;;
75990;SDS011;64673;52.276;10.560;2023-03-31T10:00:32;2.38;;;1.02;;
75990;SDS011;64673;52.276;10.560;2023-03-31T10:03:00;2.55;;;0.43;;
75990;SDS011;64673;52.276;10.560;2023-03-31T10:10:50;1.60;;;0.50;;
75990;SDS011;64673;52.276;10.560;2023-03-31T10:13:19;3.10;;;0.70;;
75990;SDS011;64673;52.276;10.560;2023-03-31T10:15:46;3.28;;;0.63;;
75990;SDS011;64673;52.276;10.560;2023-03-31T10:18:18;2.17;;;0.47;;
75990;SDS011;64673;52.276;10.560;2023-03-31T10:20:49;3.58;;;0.55;;
75990;SDS011;64673;52.276;10.560;2023-03-31T10:25:51;1.00;;;0.65;;
75990;SDS011;64673;52.276;10.560;2023-03-31T10:28:17;1.95;;;0.60;;
75990;SDS011;64673;52.276;10.560;2023-03-31T10:30:48;2.15;;;0.60;;
75990;SDS011;64673;52.276;10.560;2023-03-31T10:33:20;4.30;;;0.80;;
75990;SDS011;64673;52.276;10.560;2023-03-31T10:35:53;1.50;;;1.08;;
75990;SDS011;64673;52.276;10.560;2023-03-31T10:38:25;4.32;;;1.40;;
75990;SDS011;64673;52.276;10.560;2023-03-31T10:40:55;2.65;;;0.70;;
75990;SDS011;64673;52.276;10.560;2023-03-31T10:43:26;3.72;;;0.80;;
75990;SDS011;64673;52.276;10.560;2023-03-31T10:45:55;2.00;;;0.88;;
75990;SDS011;64673;52.276;10.560;2023-03-31T10:48:27;2.75;;;0.80;;
75990;SDS011;64673;52.276;10.560;2023-03-31T10:51:38;2.13;;;0.85;;
75990;SDS011;64673;52.276;10.560;2023-03-31T10:54:00;2.25;;;0.95;;
75990;SDS011;64673;52.276;10.560;2023-03-31T10:56:36;3.45;;;0.65;;
75990;SDS011;64673;52.276;10.560;2023-03-31T11:04:37;2.20;;;0.88;;
75990;SDS011;64673;52.276;10.560;2023-03-31T11:09:32;1.40;;;0.70;;
75990;SDS011;64673;52.276;10.560;2023-03-31T11:12:12;2.38;;;1.00;;
75990;SDS011;64673;52.276;10.560;2023-03-31T11:17:25;1.13;;;0.63;;
75990;SDS011;64673;52.276;10.560;2023-03-31T11:30:45;1.88;;;0.68;;
75990;SDS011;64673;52.276;10.560;2023-03-31T11:42:02;1.65;;;0.60;;
75990;SDS011;64673;52.276;10.560;2023-03-31T11:44:39;4.75;;;0.75;;
75990;SDS011;64673;52.276;10.560;2023-03-31T11:47:10;1.85;;;0.60;;
75990;SDS011;64673;52.276;10.560;2023-03-31T11:49:44;3.15;;;0.80;;
75990;SDS011;64673;52.276;10.560;2023-03-31T11:52:16;2.55;;;0.90;;
75990;SDS011;64673;52.276;10.560;2023-03-31T11:54:52;1.02;;;0.60;;
75990;SDS011;64673;52.276;10.560;2023-03-31T11:57:29;3.38;;;1.00;;
75990;SDS011;64673;52.276;10.560;2023-03-31T12:00:22;2.40;;;0.90;;
75990;SDS011;64673;52.276;10.560;2023-03-31T12:03:12;1.83;;;0.60;;
75990;SDS011;64673;52.276;10.560;2023-03-31T12:05:45;3.25;;;1.10;;
75990;SDS011;64673;52.276;10.560;2023-03-31T12:08:25;4.20;;;0.80;;
75990;SDS011;64673;52.276;10.560;2023-03-31T12:11:01;1.63;;;0.70;;
75990;SDS011;64673;52.276;10.560;2023-03-31T12:13:38;1.65;;;0.80;;
75990;SDS011;64673;52.276;10.560;2023-03-31T12:16:08;2.03;;;0.82;;
75990;SDS011;64673;52.276;10.560;2023-03-31T12:18:41;1.80;;;0.90;;
75990;SDS011;64673;52.276;10.560;2023-03-31T12:21:27;1.60;;;0.65;;
75990;SDS011;64673;52.276;10.560;2023-03-31T12:23:54;1.50;;;0.88;;
75990;SDS011;64673;52.276;10.560;2023-03-31T12:26:32;1.85;;;0.90;;
75990;SDS011;64673;52.276;10.560;2023-03-31T12:29:11;3.20;;;1.70;;
75990;SDS011;64673;52.276;10.560;2023-03-31T12:31:41;3.53;;;1.40;;
75990;SDS011;64673;52.276;10.560;2023-03-31T12:50:45;2.22;;;0.98;;
75990;SDS011;64673;52.276;10.560;2023-03-31T12:55:47;2.20;;;0.95;;
75990;SDS011;64673;52.276;10.560;2023-03-31T13:06:49;3.95;;;1.02;;
75990;SDS011;64673;52.276;10.560;2023-03-31T13:11:46;1.47;;;0.73;;
75990;SDS011;64673;52.276;10.560;2023-03-31T13:16:54;1.45;;;0.80;;
75990;SDS011;64673;52.276;10.560;2023-03-31T13:19:36;1.90;;;0.82;;
75990;SDS011;64673;52.276;10.560;2023-03-31T13:22:05;3.33;;;1.13;;
75990;SDS011;64673;52.276;10.560;2023-03-31T13:24:30;3.58;;;0.90;;
75990;SDS011;64673;52.276;10.560;2023-03-31T13:26:58;2.35;;;0.90;;
75990;SDS011;64673;52.276;10.560;2023-03-31T13:29:43;2.50;;;1.00;;
75990;SDS011;64673;52.276;10.560;2023-03-31T13:34:46;1.88;;;0.57;;
75990;SDS011;64673;52.276;10.560;2023-03-31T14:02:38;2.45;;;1.20;;
75990;SDS011;64673;52.276;10.560;2023-03-31T14:05:22;2.08;;;0.63;;
75990;SDS011;64673;52.276;10.560;2023-03-31T14:07:53;3.50;;;0.73;;
75990;SDS011;64673;52.276;10.560;2023-03-31T14:10:24;3.25;;;0.90;;
75990;SDS011;64673;52.276;10.560;2023-03-31T14:12:50;2.50;;;0.90;;
75990;SDS011;64673;52.276;10.560;2023-03-31T14:15:17;3.22;;;0.65;;
75990;SDS011;64673;52.276;10.560;2023-03-31T14:17:44;2.28;;;0.90;;
75990;SDS011;64673;52.276;10.560;2023-03-31T14:20:27;2.30;;;0.90;;
75990;SDS011;64673;52.276;10.560;2023-03-31T14:31:19;2.88;;;1.10;;
75990;SDS011;64673;52.276;10.560;2023-03-31T14:39:05;2.58;;;0.82;;
75990;SDS011;64673;52.276;10.560;2023-03-31T14:41:35;2.67;;;0.68;;
75990;SDS011;64673;52.276;10.560;2023-03-31T14:44:03;2.72;;;0.70;;
75990;SDS011;64673;52.276;10.560;2023-03-31T14:46:31;2.53;;;0.50;;
75990;SDS011;64673;52.276;10.560;2023-03-31T14:49:05;3.88;;;0.82;;
75990;SDS011;64673;52.276;10.560;2023-03-31T14:51:41;3.47;;;0.90;;
75990;SDS011;64673;52.276;10.560;2023-03-31T14:54:13;3.20;;;0.85;;
75990;SDS011;64673;52.276;10.560;2023-03-31T14:56:41;2.50;;;0.85;;
75990;SDS011;64673;52.276;10.560;2023-03-31T14:59:07;1.55;;;0.63;;
75990;SDS011;64673;52.276;10.560;2023-03-31T15:01:34;3.15;;;1.13;;
75990;SDS011;64673;52.276;10.560;2023-03-31T15:04:07;5.28;;;1.13;;
75990;SDS011;64673;52.276;10.560;2023-03-31T15:06:35;3.38;;;0.90;;
75990;SDS011;64673;52.276;10.560;2023-03-31T15:09:04;1.52;;;0.60;;
75990;SDS011;64673;52.276;10.560;2023-03-31T15:11:30;2.20;;;0.73;;
75990;SDS011;64673;52.276;10.560;2023-03-31T15:13:56;2.83;;;0.82;;
75990;SDS011;64673;52.276;10.560;2023-03-31T15:21:58;2.33;;;0.70;;
75990;SDS011;64673;52.276;10.560;2023-03-31T15:24:28;1.08;;;0.68;;
75990;SDS011;64673;52.276;10.560;2023-03-31T15:27:05;1.35;;;0.40;;
75990;SDS011;64673;52.276;10.560;2023-03-31T15:29:49;1.63;;;0.50;;
75990;SDS011;64673;52.276;10.560;2023-03-31T15:32:25;1.45;;;0.50;;
75990;SDS011;64673;52.276;10.560;2023-03-31T15:34:52;1.55;;;0.55;;
75990;SDS011;64673;52.276;10.560;2023-03-31T15:37:23;2.13;;;0.73;;
75990;SDS011;64673;52.276;10.560;2023-03-31T15:39:51;2.47;;;0.82;;
75990;SDS011;64673;52.276;10.560;2023-03-31T15:42:20;2.88;;;0.95;;
75990;SDS011;64673;52.276;10.560;2023-03-31T15:44:47;2.53;;;0.70;;
75990;SDS011;64673;52.276;10.560;2023-03-31T15:47:35;1.52;;;0.68;;
75990;SDS011;64673;52.276;10.560;2023-03-31T15:52:36;1.30;;;0.40;;
75990;SDS011;64673;52.276;10.560;2023-03-31T15:58:05;2.67;;;0.52;;
75990;SDS011;64673;52.276;10.560;2023-03-31T16:02:56;4.10;;;0.98;;
75990;SDS011;64673;52.276;10.560;2023-03-31T16:06:08;1.52;;;0.65;;
75990;SDS011;64673;52.276;10.560;2023-03-31T16:08:16;1.20;;;0.50;;
75990;SDS011;64673;52.276;10.560;2023-03-31T16:10:46;1.52;;;0.60;;
75990;SDS011;64673;52.276;10.560;2023-03-31T16:13:16;1.63;;;0.52;;
75990;SDS011;64673;52.276;10.560;2023-03-31T16:15:48;1.48;;;0.43;;
75990;SDS011;64673;52.276;10.560;2023-03-31T16:18:23;1.75;;;0.43;;
75990;SDS011;64673;52.276;10.560;2023-03-31T16:21:02;2.10;;;0.50;;
75990;SDS011;64673;52.276;10.560;2023-03-31T16:23:33;1.30;;;0.47;;
75990;SDS011;64673;52.276;10.560;2023-03-31T16:26:02;2.97;;;0.82;;
75990;SDS011;64673;52.276;10.560;2023-03-31T16:28:29;2.70;;;0.70;;
75990;SDS011;64673;52.276;10.560;2023-03-31T16:30:57;1.63;;;0.50;;
75990;SDS011;64673;52.276;10.560;2023-03-31T16:33:26;2.40;;;0.57;;
75990;SDS011;64673;52.276;10.560;2023-03-31T16:35:53;1.38;;;0.47;;
75990;SDS011;64673;52.276;10.560;2023-03-31T16:38:23;1.83;;;0.52;;
75990;SDS011;64673;52.276;10.560;2023-03-31T16:40:53;0.88;;;0.40;;
75990;SDS011;64673;52.276;10.560;2023-03-31T16:43:24;2.13;;;0.70;;
75990;SDS011;64673;52.276;10.560;2023-03-31T16:45:52;2.13;;;0.60;;
75990;SDS011;64673;52.276;10.560;2023-03-31T16:48:24;0.98;;;0.50;;
75990;SDS011;64673;52.276;10.560;2023-03-31T16:50:52;1.58;;;0.52;;
75990;SDS011;64673;52.276;10.560;2023-03-31T16:53:20;2.05;;;0.95;;
75990;SDS011;64673;52.276;10.560;2023-03-31T16:55:47;0.75;;;0.40;;
75990;SDS011;64673;52.276;10.560;2023-03-31T16:58:13;1.40;;;0.70;;
75990;SDS011;64673;52.276;10.560;2023-03-31T17:00:39;3.33;;;0.70;;
75990;SDS011;64673;52.276;10.560;2023-03-31T17:03:06;4.03;;;0.90;;
75990;SDS011;64673;52.276;10.560;2023-03-31T17:05:42;1.50;;;0.70;;
75990;SDS011;64673;52.276;10.560;2023-03-31T17:08:09;3.28;;;0.60;;
75990;SDS011;64673;52.276;10.560;2023-03-31T17:10:36;3.03;;;0.82;;
75990;SDS011;64673;52.276;10.560;2023-03-31T17:13:03;2.35;;;0.85;;
75990;SDS011;64673;52.276;10.560;2023-03-31T17:15:29;4.30;;;0.90;;
75990;SDS011;64673;52.276;10.560;2023-03-31T17:17:55;2.75;;;0.93;;
75990;SDS011;64673;52.276;10.560;2023-03-31T17:20:22;3.33;;;1.20;;
75990;SDS011;64673;52.276;10.560;2023-03-31T17:22:50;3.20;;;0.98;;
75990;SDS011;64673;52.276;10.560;2023-03-31T17:25:16;4.78;;;1.25;;
75990;SDS011;64673;52.276;10.560;2023-03-31T17:27:42;4.78;;;1.35;;
75990;SDS011;64673;52.276;10.560;2023-03-31T17:30:08;7.50;;;1.27;;
75990;SDS011;64673;52.276;10.560;2023-03-31T17:32:34;2.42;;;1.02;;
75990;SDS011;64673;52.276;10.560;2023-03-31T17:34:59;2.33;;;1.08;;
75990;SDS011;64673;52.276;10.560;2023-03-31T17:37:26;3.47;;;1.23;;
75990;SDS011;64673;52.276;10.560;2023-03-31T17:39:51;5.35;;;1.38;;
75990;SDS011;64673;52.276;10.560;2023-03-31T17:42:17;5.63;;;1.70;;
75990;SDS011;64673;52.276;10.560;2023-03-31T17:44:44;6.40;;;1.58;;
75990;SDS011;64673;52.276;10.560;2023-03-31T17:47:11;4.32;;;1.65;;
75990;SDS011;64673;52.276;10.560;2023-03-31T17:49:37;4.30;;;1.30;;
75990;SDS011;64673;52.276;10.560;2023-03-31T17:52:03;2.42;;;0.98;;
75990;SDS011;64673;52.276;10.560;2023-03-31T17:54:28;3.05;;;0.90;;